createdAt,value
2023-04-02T00:00:13.873Z,99481.81
2023-04-02T00:03:22.211Z,99472.72
2023-04-02T00:06:34.152Z,99483.75
2023-04-02T00:09:38.211Z,99481.13
2023-04-02T00:12:58.768Z,99488.06
2023-04-02T00:16:03.584Z,99479.09
2023-04-02T00:19:13.091Z,99487.09
2023-04-02T00:22:21.571Z,99492.44
2023-04-02T00:25:28.291Z,99493.31
2023-04-02T00:28:31.185Z,99491.81
2023-04-02T00:31:38.050Z,99494.09
2023-04-02T00:34:41.781Z,99488.31
2023-04-02T00:37:44.904Z,99485.63
2023-04-02T00:40:47.791Z,99474.75
2023-04-02T00:43:52.760Z,99481.88
2023-04-02T00:46:58.415Z,99479.50
2023-04-02T00:50:07.886Z,99485.84
2023-04-02T00:53:17.400Z,99485.03
2023-04-02T00:56:27.665Z,99479.50
2023-04-02T01:00:08.600Z,99486.88
2023-04-02T01:03:18.163Z,99491.69
2023-04-02T01:06:22.223Z,99487.72
2023-04-02T01:09:44.275Z,99495.50
2023-04-02T01:13:13.506Z,99494.00
2023-04-02T01:16:26.019Z,99494.31
2023-04-02T01:19:50.515Z,99487.38
2023-04-02T01:22:58.557Z,99479.94
2023-04-02T01:26:26.030Z,99482.84
2023-04-02T01:29:39.645Z,99479.03
2023-04-02T01:32:43.255Z,99491.88
2023-04-02T01:35:56.360Z,99487.59
2023-04-02T01:39:18.592Z,99488.09
2023-04-02T01:42:24.761Z,99482.63
2023-04-02T01:45:27.429Z,99477.09
2023-04-02T01:48:31.380Z,99495.16
2023-04-02T01:51:36.206Z,99497.94
2023-04-02T01:54:40.739Z,99494.88
2023-04-02T01:57:47.696Z,99495.69
2023-04-02T02:00:53.730Z,99503.88
2023-04-02T02:03:57.102Z,99492.94
2023-04-02T02:07:02.609Z,99502.38
2023-04-02T02:10:07.363Z,99502.31
2023-04-02T02:13:15.051Z,99489.09
2023-04-02T02:16:19.260Z,99491.13
2023-04-02T02:19:43.791Z,99483.28
2023-04-02T02:22:48.540Z,99491.91
2023-04-02T02:25:51.561Z,99482.53
2023-04-02T02:28:57.580Z,99484.50
2023-04-02T02:32:03.247Z,99483.28
2023-04-02T02:35:16.131Z,99488.00
2023-04-02T02:38:34.841Z,99488.09
2023-04-02T02:41:45.136Z,99477.97
2023-04-02T02:44:50.574Z,99481.97
2023-04-02T02:47:54.999Z,99485.44
2023-04-02T02:50:59.914Z,99483.53
2023-04-02T02:54:05.505Z,99477.41
2023-04-02T02:57:16.181Z,99476.56
2023-04-02T03:00:19.994Z,99482.78
2023-04-02T03:03:32.817Z,99482.44
2023-04-02T03:06:36.806Z,99484.34
2023-04-02T03:09:45.523Z,99485.50
2023-04-02T03:13:33.031Z,99489.78
2023-04-02T03:16:45.808Z,99484.75
2023-04-02T03:19:57.756Z,99488.97
2023-04-02T03:23:19.157Z,99494.47
2023-04-02T03:26:29.771Z,99488.16
2023-04-02T03:29:40.327Z,99500.34
2023-04-02T03:32:48.752Z,99495.28
2023-04-02T03:35:54.622Z,99500.75
2023-04-02T03:39:20.798Z,99498.41
2023-04-02T03:42:37.541Z,99500.75
2023-04-02T03:45:45.978Z,99507.72
2023-04-02T03:48:59.596Z,99510.41
2023-04-02T03:52:11.053Z,99517.47
2023-04-02T03:55:20.092Z,99520.63
2023-04-02T03:58:28.860Z,99523.34
2023-04-02T04:01:48.090Z,99522.53
2023-04-02T04:04:51.727Z,99527.63
2023-04-02T04:08:01.661Z,99531.94
2023-04-02T04:11:22.912Z,99527.25
2023-04-02T04:14:33.258Z,99525.97
2023-04-02T04:18:35.168Z,99534.19
2023-04-02T04:21:39.399Z,99540.91
2023-04-02T04:24:45.654Z,99545.59
2023-04-02T04:28:08.268Z,99548.44
2023-04-02T04:31:23.892Z,99554.25
2023-04-02T04:34:53.785Z,99561.66
2023-04-02T04:38:04.911Z,99558.94
2023-04-02T04:41:19.118Z,99566.41
2023-04-02T04:44:28.739Z,99561.72
2023-04-02T04:47:43.192Z,99568.72
2023-04-02T04:50:52.265Z,99556.22
2023-04-02T04:53:55.846Z,99562.91
2023-04-02T04:57:04.107Z,99553.53
2023-04-02T05:00:17.901Z,99566.09
2023-04-02T05:03:36.106Z,99557.84
2023-04-02T05:06:54.516Z,99563.34
2023-04-02T05:10:25.391Z,99557.53
2023-04-02T05:13:50.947Z,99566.97
2023-04-02T05:17:15.540Z,99569.72
2023-04-02T05:20:26.640Z,99570.09
2023-04-02T05:23:36.248Z,99577.97
2023-04-02T05:26:45.893Z,99579.91
2023-04-02T05:29:59.684Z,99580.72
2023-04-02T05:33:08.001Z,99572.13
2023-04-02T05:36:21.737Z,99572.13
2023-04-02T05:39:26.982Z,99580.75
2023-04-02T05:42:34.657Z,99587.03
2023-04-02T05:45:41.330Z,99580.28
2023-04-02T05:48:50.512Z,99575.63
2023-04-02T05:51:58.865Z,99581.94
2023-04-02T05:55:29.441Z,99592.44
2023-04-02T05:58:39.705Z,99595.69
2023-04-02T06:01:51.937Z,99595.66
2023-04-02T06:05:05.642Z,99593.41
2023-04-02T06:08:14.906Z,99603.94
2023-04-02T06:11:24.326Z,99598.53
2023-04-02T06:14:27.797Z,99606.81
2023-04-02T06:17:43.215Z,99610.38
2023-04-02T06:20:47.220Z,99617.84
2023-04-02T06:23:59.954Z,99612.81
2023-04-02T06:27:08.780Z,99624.12
2023-04-02T06:30:41.318Z,99624.19
2023-04-02T06:33:44.072Z,99622.19
2023-04-02T06:36:49.619Z,99623.38
2023-04-02T06:39:53.510Z,99630.81
2023-04-02T06:42:59.850Z,99630.44
2023-04-02T06:46:15.333Z,99625.41
2023-04-02T06:49:26.167Z,99634.81
2023-04-02T06:52:45.123Z,99636.38
2023-04-02T06:55:58.840Z,99633.66
2023-04-02T06:59:04.805Z,99642.28
2023-04-02T07:02:24.769Z,99641.50
2023-04-02T07:05:28.185Z,99657.19
2023-04-02T07:08:31.615Z,99656.00
2023-04-02T07:11:35.507Z,99658.75
2023-04-02T07:14:38.772Z,99653.25
2023-04-02T07:17:42.033Z,99667.38
2023-04-02T07:20:45.121Z,99668.56
2023-04-02T07:23:48.247Z,99662.31
2023-04-02T07:26:51.437Z,99672.09
2023-04-02T07:29:54.055Z,99666.59
2023-04-02T07:32:57.181Z,99673.66
2023-04-02T07:36:00.280Z,99686.19
2023-04-02T07:39:04.045Z,99684.22
2023-04-02T07:42:08.040Z,99686.50
2023-04-02T07:45:11.452Z,99684.50
2023-04-02T07:48:14.828Z,99681.78
2023-04-02T07:51:23.424Z,99684.94
2023-04-02T07:54:27.229Z,99691.59
2023-04-02T07:57:30.279Z,99684.91
2023-04-02T08:00:33.344Z,99699.50
2023-04-02T08:03:36.830Z,99701.84
2023-04-02T08:06:39.395Z,99704.63
2023-04-02T08:09:42.501Z,99706.94
2023-04-02T08:12:45.543Z,99707.31
2023-04-02T08:15:48.464Z,99693.22
2023-04-02T08:18:51.556Z,99714.00
2023-04-02T08:21:55.169Z,99713.09
2023-04-02T08:24:57.811Z,99713.41
2023-04-02T08:28:02.091Z,99707.38
2023-04-02T08:31:04.916Z,99706.44
2023-04-02T08:34:08.143Z,99716.22
2023-04-02T08:37:14.110Z,99710.34
2023-04-02T08:40:36.972Z,99715.91
2023-04-02T08:43:40.815Z,99722.44
2023-04-02T08:46:55.754Z,99721.16
2023-04-02T08:50:17.948Z,99724.78
2023-04-02T08:53:27.542Z,99723.09
2023-04-02T08:56:44.690Z,99718.31
2023-04-02T08:59:48.076Z,99723.09
2023-04-02T09:03:00.669Z,99732.84
2023-04-02T09:06:04.365Z,99733.75
2023-04-02T09:09:09.126Z,99731.84
2023-04-02T09:12:23.968Z,99722.94
2023-04-02T09:15:34.224Z,99734.00
2023-04-02T09:18:38.520Z,99724.66
2023-04-02T09:21:45.922Z,99733.44
2023-04-02T09:25:00.536Z,99736.78
2023-04-02T09:28:05.062Z,99738.69
2023-04-02T09:31:24.001Z,99738.22
2023-04-02T09:34:32.704Z,99732.03
2023-04-02T09:37:37.300Z,99735.34
2023-04-02T09:40:52.115Z,99730.69
2023-04-02T09:44:21.302Z,99733.78
2023-04-02T09:47:26.428Z,99737.56
2023-04-02T09:50:34.751Z,99729.63
2023-04-02T09:53:42.299Z,99730.38
2023-04-02T09:57:03.790Z,99730.47
2023-04-02T10:00:29.888Z,99733.59
2023-04-02T10:03:35.202Z,99744.78
2023-04-02T10:06:50.025Z,99741.00
2023-04-02T10:10:01.278Z,99745.00
2023-04-02T10:13:36.057Z,99738.91
2023-04-02T10:16:44.628Z,99735.22
2023-04-02T10:20:23.100Z,99736.47
2023-04-02T10:23:29.788Z,99733.19
2023-04-02T10:26:36.985Z,99740.31
2023-04-02T10:30:17.916Z,99742.53
2023-04-02T10:33:43.678Z,99734.44
2023-04-02T10:36:57.868Z,99740.38
2023-04-02T10:40:10.612Z,99731.31
2023-04-02T10:43:38.571Z,99728.38
2023-04-02T10:46:59.682Z,99740.66
2023-04-02T10:50:24.550Z,99722.50
2023-04-02T10:53:42.635Z,99740.72
2023-04-02T10:56:51.055Z,99728.34
2023-04-02T11:00:12.862Z,99727.47
2023-04-02T11:03:35.391Z,99726.91
2023-04-02T11:06:47.026Z,99722.50
2023-04-02T11:09:53.653Z,99727.81
2023-04-02T11:13:23.596Z,99719.91
2023-04-02T11:16:29.953Z,99720.63
2023-04-02T11:19:36.116Z,99730.25
2023-04-02T11:22:39.181Z,99723.12
2023-04-02T11:25:42.782Z,99719.63
2023-04-02T11:28:46.451Z,99717.22
2023-04-02T11:31:51.542Z,99716.72
2023-04-02T11:35:05.829Z,99717.16
2023-04-02T11:38:12.198Z,99719.47
2023-04-02T11:41:55.422Z,99698.72
2023-04-02T11:45:21.376Z,99701.00
2023-04-02T11:48:26.282Z,99707.66
2023-04-02T11:51:31.946Z,99700.50
2023-04-02T11:54:38.226Z,99709.38
2023-04-02T11:57:49.727Z,99719.25
2023-04-02T12:01:18.918Z,99720.66
2023-04-02T12:04:56.614Z,99722.75
2023-04-02T12:08:57.007Z,99714.44
2023-04-02T12:12:24.738Z,99714.13
2023-04-02T12:15:39.876Z,99713.50
2023-04-02T12:18:46.785Z,99707.91
2023-04-02T12:21:53.061Z,99695.72
2023-04-02T12:25:00.103Z,99702.38
2023-04-02T12:28:11.556Z,99691.88
2023-04-02T12:31:19.478Z,99678.88
2023-04-02T12:34:24.701Z,99679.66
2023-04-02T12:37:29.569Z,99669.66
2023-04-02T12:40:32.403Z,99666.19
2023-04-02T12:43:38.048Z,99666.00
2023-04-02T12:46:41.146Z,99658.53
2023-04-02T12:49:45.064Z,99666.88
2023-04-02T12:52:51.384Z,99670.25
2023-04-02T12:55:54.688Z,99667.25
2023-04-02T12:59:01.505Z,99660.56
2023-04-02T13:02:18.871Z,99671.97
2023-04-02T13:05:42.667Z,99662.69
2023-04-02T13:08:46.459Z,99679.88
2023-04-02T13:11:49.370Z,99686.84
2023-04-02T13:14:58.126Z,99686.94
2023-04-02T13:18:12.616Z,99678.19
2023-04-02T13:21:21.686Z,99676.59
2023-04-02T13:24:27.140Z,99671.78
2023-04-02T13:27:29.954Z,99675.50
2023-04-02T13:30:32.629Z,99675.75
2023-04-02T13:33:35.789Z,99668.94
2023-04-02T13:36:38.718Z,99661.12
2023-04-02T13:39:42.853Z,99661.81
2023-04-02T13:42:47.237Z,99689.03
2023-04-02T13:45:54.505Z,99676.91
2023-04-02T13:48:58.285Z,99668.81
2023-04-02T13:52:05.708Z,99686.66
2023-04-02T13:55:10.381Z,99679.28
2023-04-02T13:58:13.341Z,99693.44
2023-04-02T14:01:17.399Z,99681.31
2023-04-02T14:04:26.175Z,99687.53
2023-04-02T14:07:41.381Z,99684.69
2023-04-02T14:11:05.819Z,99690.47
2023-04-02T14:14:14.284Z,99688.50
2023-04-02T14:17:37.465Z,99693.03
2023-04-02T14:20:57.952Z,99701.41
2023-04-02T14:24:16.624Z,99694.75
2023-04-02T14:27:40.716Z,99684.94
2023-04-02T14:31:07.104Z,99686.84
2023-04-02T14:34:20.629Z,99696.84
2023-04-02T14:37:41.342Z,99687.03
2023-04-02T14:40:59.849Z,99687.19
2023-04-02T14:44:08.711Z,99681.44
2023-04-02T14:47:31.284Z,99687.47
2023-04-02T14:50:39.494Z,99685.59
2023-04-02T14:53:48.044Z,99698.84
2023-04-02T14:56:55.691Z,99686.78
2023-04-02T15:00:24.099Z,99699.50
2023-04-02T15:03:37.562Z,99692.09
2023-04-02T15:06:49.491Z,99711.22
2023-04-02T15:10:35.184Z,99696.03
2023-04-02T15:14:14.922Z,99706.66
2023-04-02T15:17:17.983Z,99710.06
2023-04-02T15:20:20.702Z,99709.19
2023-04-02T15:23:55.013Z,99707.38
2023-04-02T15:27:14.675Z,99703.44
2023-04-02T15:30:29.841Z,99706.94
2023-04-02T15:33:43.537Z,99705.13
2023-04-02T15:37:13.110Z,99721.59
2023-04-02T15:40:21.545Z,99717.25
2023-04-02T15:43:31.641Z,99724.63
2023-04-02T15:46:56.199Z,99737.50
2023-04-02T15:50:42.629Z,99732.22
2023-04-02T15:53:52.456Z,99728.97
2023-04-02T15:57:14.964Z,99738.53
2023-04-02T16:00:18.077Z,99740.38
2023-04-02T16:03:49.567Z,99744.38
2023-04-02T16:07:13.922Z,99743.19
2023-04-02T16:10:45.073Z,99750.53
2023-04-02T16:13:48.580Z,99763.75
2023-04-02T16:16:53.431Z,99756.09
2023-04-02T16:20:17.332Z,99756.63
2023-04-02T16:23:33.983Z,99756.44
2023-04-02T16:26:43.830Z,99766.22
2023-04-02T16:30:15.092Z,99769.31
2023-04-02T16:33:44.207Z,99768.16
2023-04-02T16:37:00.903Z,99773.84
2023-04-02T16:40:15.582Z,99779.87
2023-04-02T16:43:30.815Z,99777.12
2023-04-02T16:46:51.680Z,99793.69
2023-04-02T16:50:11.614Z,99786.66
2023-04-02T16:53:31.017Z,99786.78
2023-04-02T16:56:59.104Z,99792.41
2023-04-02T17:00:18.631Z,99803.59
2023-04-02T17:03:37.999Z,99802.53
2023-04-02T17:07:05.522Z,99814.91
2023-04-02T17:10:23.122Z,99811.53
2023-04-02T17:13:44.296Z,99817.50
2023-04-02T17:16:56.234Z,99818.28
2023-04-02T17:20:01.243Z,99808.88
2023-04-02T17:23:05.914Z,99812.47
2023-04-02T17:26:09.962Z,99812.47
2023-04-02T17:29:20.019Z,99831.81
2023-04-02T17:32:32.912Z,99843.31
2023-04-02T17:35:51.614Z,99846.19
2023-04-02T17:38:54.513Z,99861.09
2023-04-02T17:42:12.786Z,99856.41
2023-04-02T17:45:34.218Z,99863.84
2023-04-02T17:48:46.325Z,99872.44
2023-04-02T17:52:00.522Z,99867.31
2023-04-02T17:55:18.578Z,99884.06
2023-04-02T17:58:45.866Z,99896.25
2023-04-02T18:02:05.159Z,99894.75
2023-04-02T18:05:08.048Z,99911.50
2023-04-02T18:08:34.879Z,99923.28
2023-04-02T18:11:53.780Z,99918.97
2023-04-02T18:15:23.124Z,99918.88
2023-04-02T18:18:57.040Z,99922.47
2023-04-02T18:22:17.675Z,99930.28
2023-04-02T18:25:20.885Z,99937.69
2023-04-02T18:28:41.344Z,99942.00
2023-04-02T18:32:04.772Z,99942.81
2023-04-02T18:35:35.652Z,99944.34
2023-04-02T18:38:57.987Z,99949.69
2023-04-02T18:42:11.551Z,99952.41
2023-04-02T18:45:31.796Z,99954.34
2023-04-02T18:49:04.475Z,99962.13
2023-04-02T18:52:16.127Z,99964.78
2023-04-02T18:55:28.085Z,99948.75
2023-04-02T18:58:39.641Z,99957.44
2023-04-02T19:01:48.822Z,99963.53
2023-04-02T19:05:01.205Z,99956.69
2023-04-02T19:08:43.889Z,99961.13
2023-04-02T19:11:49.010Z,99970.84
2023-04-02T19:14:53.733Z,99970.84
2023-04-02T19:18:10.593Z,99961.53
2023-04-02T19:21:51.732Z,99971.25
2023-04-02T19:25:03.865Z,99969.72
2023-04-02T19:28:20.027Z,99972.72
2023-04-02T19:31:35.568Z,99967.97
2023-04-02T19:34:56.648Z,99976.53
2023-04-02T19:38:17.922Z,99977.84
2023-04-02T19:41:43.236Z,99984.50
2023-04-02T19:44:49.933Z,99988.78
2023-04-02T19:47:53.645Z,99987.13
2023-04-02T19:50:57.097Z,99994.06
2023-04-02T19:54:00.552Z,99996.75
2023-04-02T19:57:05.220Z,99997.84
2023-04-02T20:00:11.758Z,100003.94
2023-04-02T20:03:14.874Z,100010.72
2023-04-02T20:06:18.361Z,100017.59
2023-04-02T20:09:21.883Z,100019.53
2023-04-02T20:12:25.212Z,100019.66
2023-04-02T20:15:27.933Z,100018.88
2023-04-02T20:18:31.530Z,100018.53
2023-04-02T20:21:38.426Z,100030.31
2023-04-02T20:24:42.755Z,100038.00
2023-04-02T20:27:46.202Z,100037.22
2023-04-02T20:30:50.404Z,100043.56
2023-04-02T20:33:58.923Z,100043.16
2023-04-02T20:37:02.051Z,100044.34
2023-04-02T20:40:05.921Z,100045.94
2023-04-02T20:43:10.213Z,100049.81
2023-04-02T20:46:13.148Z,100040.22
2023-04-02T20:49:16.302Z,100051.22
2023-04-02T20:52:18.997Z,100053.28
2023-04-02T20:55:22.250Z,100057.25
2023-04-02T20:58:25.128Z,100060.75
2023-04-02T21:01:30.020Z,100063.75
2023-04-02T21:04:32.644Z,100065.91
2023-04-02T21:07:35.624Z,100063.78
2023-04-02T21:10:39.171Z,100068.50
2023-04-02T21:13:44.122Z,100067.78
2023-04-02T21:16:47.051Z,100063.78
2023-04-02T21:19:50.033Z,100069.81
2023-04-02T21:22:53.534Z,100072.50
2023-04-02T21:25:58.446Z,100059.84
2023-04-02T21:29:01.708Z,100073.25
2023-04-02T21:32:17.961Z,100078.09
2023-04-02T21:35:23.191Z,100076.09
2023-04-02T21:38:26.571Z,100083.72
2023-04-02T21:41:31.646Z,100085.03
2023-04-02T21:44:34.629Z,100086.31
2023-04-02T21:47:37.205Z,100090.69
2023-04-02T21:50:40.203Z,100094.13
2023-04-02T21:53:43.513Z,100099.94
2023-04-02T21:56:47.227Z,100104.69
2023-04-02T21:59:49.790Z,100103.34
2023-04-02T22:02:52.920Z,100102.00
2023-04-02T22:06:07.966Z,100103.47
2023-04-02T22:09:14.026Z,100114.19
2023-04-02T22:12:17.186Z,100121.13
2023-04-02T22:15:19.767Z,100124.06
2023-04-02T22:18:22.708Z,100125.78
2023-04-02T22:21:26.050Z,100121.47
2023-04-02T22:24:29.093Z,100129.97
2023-04-02T22:27:31.705Z,100126.75
2023-04-02T22:30:35.059Z,100120.94
2023-04-02T22:33:38.118Z,100120.66
2023-04-02T22:36:41.360Z,100136.56
2023-04-02T22:39:44.121Z,100131.03
2023-04-02T22:42:48.888Z,100132.88
2023-04-02T22:45:52.009Z,100133.94
2023-04-02T22:48:55.890Z,100140.59
2023-04-02T22:51:58.539Z,100125.75
2023-04-02T22:55:01.701Z,100134.16
2023-04-02T22:58:04.422Z,100136.50
2023-04-02T23:01:13.550Z,100143.34
2023-04-02T23:04:16.464Z,100140.59
2023-04-02T23:07:19.353Z,100147.50
2023-04-02T23:10:22.045Z,100145.66
2023-04-02T23:13:25.225Z,100153.06
2023-04-02T23:16:29.527Z,100155.59
2023-04-02T23:19:32.513Z,100159.56
2023-04-02T23:22:37.546Z,100157.22
2023-04-02T23:25:41.335Z,100162.72
2023-04-02T23:28:44.077Z,100169.03
2023-04-02T23:31:47.444Z,100176.50
2023-04-02T23:34:50.415Z,100182.56
2023-04-02T23:37:53.450Z,100184.25
2023-04-02T23:40:56.033Z,100184.94
2023-04-02T23:43:59.314Z,100184.31
2023-04-02T23:47:02.402Z,100185.78
2023-04-02T23:50:05.820Z,100191.00
2023-04-02T23:53:08.422Z,100195.41
2023-04-02T23:56:12.308Z,100209.75
2023-04-02T23:59:15.147Z,100206.22
